Time;durP1;ratioP1;P1;durP2;ratioP2;P2;SDS_P1;SDS_P2;PMS_P1;PMS_P2;Temp;Humidity;BMP_temperature;BMP_pressure;BME280_temperature;BME280_humidity;BME280_pressure;Samples;Min_cycle;Max_cycle;Signal;HPM_P1;HPM_P2
2022/12/06 00:01:37;;;;;;;;;;;;;;;20.76;29.31;98714.69;5079260;28;1968;-77
2022/12/06 00:04:04;;;;;;;;;;;;;;;20.14;29.98;98718.56;5061168;28;801;-77
2022/12/06 00:06:30;;;;;;;;;;;;;;;20.14;29.95;98712.09;5056695;28;940;-77
2022/12/06 00:08:56;;;;;;;;;;;;;;;20.12;30.46;98715.38;5056883;28;954;-76
2022/12/06 00:11:22;;;;;;;;;;;;;;;20.58;29.67;98714.13;5056553;28;861;-77
2022/12/06 00:13:50;;;;;;;;;;;;;;;20.49;29.51;98705.34;5056388;28;1209;-77
2022/12/06 00:16:16;;;;;;;;;;;;;;;20.64;29.35;98709.59;5056635;28;790;-77
2022/12/06 00:18:42;;;;;;;;;;;;;;;20.72;29.07;98711.09;5056366;28;806;-76
2022/12/06 00:21:07;;;;;;;;;;;;;;;20.30;29.58;98704.66;5056400;28;1981;-76
2022/12/06 00:23:34;;;;;;;;;;;;;;;19.87;30.71;98703.47;5057072;28;964;-76
2022/12/06 00:25:59;;;;;;;;;;;;;;;19.90;30.50;98702.63;5056588;28;776;-76
2022/12/06 00:28:25;;;;;;;;;;;;;;;20.18;30.16;98705.22;5056596;28;915;-78
2022/12/06 00:30:50;;;;;;;;;;;;;;;20.46;29.69;98689.16;5056376;28;845;-77
2022/12/06 00:33:16;;;;;;;;;;;;;;;20.51;29.41;98692.38;5056348;28;834;-77
2022/12/06 00:35:41;;;;;;;;;;;;;;;20.59;29.37;98690.28;5056069;28;904;-77
2022/12/06 00:38:06;;;;;;;;;;;;;;;20.55;29.50;98695.16;5070148;28;788;-77
2022/12/06 00:40:32;;;;;;;;;;;;;;;20.15;29.95;98686.25;5078680;28;782;-76
2022/12/06 00:42:57;;;;;;;;;;;;;;;20.06;30.23;98693.63;5060077;28;1973;-77
2022/12/06 00:45:23;;;;;;;;;;;;;;;20.26;30.40;98686.97;5077905;28;846;-76
2022/12/06 00:47:48;;;;;;;;;;;;;;;20.37;30.00;98686.06;5060310;28;730;-77
2022/12/06 00:50:14;;;;;;;;;;;;;;;20.46;29.54;98680.69;5078092;28;769;-76
2022/12/06 00:52:39;;;;;;;;;;;;;;;20.55;29.25;98675.38;5060324;28;849;-77
2022/12/06 00:55:05;;;;;;;;;;;;;;;20.61;29.35;98678.53;5077673;28;782;-77
2022/12/06 00:57:30;;;;;;;;;;;;;;;20.70;29.48;98673.97;5077495;28;870;-76
2022/12/06 00:59:55;;;;;;;;;;;;;;;20.78;29.24;98667.03;5078492;28;845;-76
2022/12/06 01:02:21;;;;;;;;;;;;;;;20.19;29.93;98667.25;5077802;28;1953;-77
2022/12/06 01:04:46;;;;;;;;;;;;;;;20.09;30.21;98665.34;5077539;28;755;-77
2022/12/06 01:07:12;;;;;;;;;;;;;;;20.62;29.32;98663.97;5077802;28;718;-77
2022/12/06 01:09:37;;;;;;;;;;;;;;;20.48;29.71;98658.50;5077990;28;949;-77
2022/12/06 01:12:03;;;;;;;;;;;;;;;20.50;29.43;98659.66;5077605;28;755;-76
2022/12/06 01:14:28;;;;;;;;;;;;;;;20.55;29.50;98661.22;5077511;28;1060;-77
2022/12/06 01:16:54;;;;;;;;;;;;;;;20.48;29.50;98664.16;5077374;28;771;-77
2022/12/06 01:19:19;;;;;;;;;;;;;;;20.27;29.77;98653.84;5059702;28;767;-77
2022/12/06 01:21:44;;;;;;;;;;;;;;;19.78;30.78;98651.09;5042178;28;1906;-77
2022/12/06 01:24:10;;;;;;;;;;;;;;;20.14;30.15;98645.09;5043317;28;810;-77
2022/12/06 01:26:35;;;;;;;;;;;;;;;20.31;29.89;98648.94;5077508;28;790;-77
2022/12/06 01:29:01;;;;;;;;;;;;;;;20.54;29.45;98643.47;5077503;28;774;-77
2022/12/06 01:31:26;;;;;;;;;;;;;;;20.70;29.13;98637.22;5077452;28;762;-77
2022/12/06 01:33:52;;;;;;;;;;;;;;;20.69;29.19;98641.28;5059279;28;782;-77
2022/12/06 01:36:18;;;;;;;;;;;;;;;20.35;29.61;98646.09;5059421;28;798;-77
2022/12/06 01:38:43;;;;;;;;;;;;;;;19.94;30.21;98633.59;5059525;28;849;-78
2022/12/06 01:41:09;;;;;;;;;;;;;;;20.02;30.36;98637.16;5059337;28;1898;-76
2022/12/06 01:43:38;;;;;;;;;;;;;;;20.37;29.76;98633.16;5077142;28;834;-77
2022/12/06 01:46:18;;;;;;;;;;;;;;;20.43;29.77;98628.63;5077327;28;750;-77
2022/12/06 01:48:44;;;;;;;;;;;;;;;20.70;29.34;98631.56;5059366;28;829;-76
2022/12/06 01:51:10;;;;;;;;;;;;;;;20.48;29.64;98630.22;5076967;28;1140;-77
2022/12/06 01:53:35;;;;;;;;;;;;;;;20.74;29.00;98620.22;5059289;28;746;-77
2022/12/06 01:56:01;;;;;;;;;;;;;;;20.41;29.43;98624.63;5077233;28;841;-77
2022/12/06 01:58:28;;;;;;;;;;;;;;;20.13;30.19;98628.56;5076965;28;696;-77
2022/12/06 02:00:53;;;;;;;;;;;;;;;19.88;30.56;98614.72;5059028;28;778;-77
2022/12/06 02:03:20;;;;;;;;;;;;;;;20.13;30.50;98626.56;5059344;28;1913;-76
2022/12/06 02:05:45;;;;;;;;;;;;;;;20.47;29.59;98628.63;5059017;28;695;-77
2022/12/06 02:08:12;;;;;;;;;;;;;;;20.50;29.57;98622.91;5058625;28;782;-77
2022/12/06 02:10:37;;;;;;;;;;;;;;;20.54;29.34;98625.72;5059003;28;773;-77
2022/12/06 02:13:02;;;;;;;;;;;;;;;20.69;29.13;98626.34;5040918;28;1262;-77
2022/12/06 02:15:31;;;;;;;;;;;;;;;20.28;30.00;98616.69;5076284;28;872;-77
2022/12/06 02:17:59;;;;;;;;;;;;;;;19.87;30.38;98616.72;5058667;28;838;-77
2022/12/06 02:20:31;;;;;;;;;;;;;;;20.29;29.91;98615.47;5058858;28;719;-77
2022/12/06 02:22:57;;;;;;;;;;;;;;;20.32;29.87;98615.88;5058838;28;1914;-77
2022/12/06 02:25:35;;;;;;;;;;;;;;;20.50;29.41;98607.97;5076488;28;767;-77
2022/12/06 02:28:00;;;;;;;;;;;;;;;20.58;29.27;98601.03;5076327;28;730;-76
2022/12/06 02:30:42;;;;;;;;;;;;;;;20.54;29.39;98605.91;5076404;28;762;-77
2022/12/06 02:33:27;;;;;;;;;;;;;;;20.54;29.25;98601.06;5058766;28;754;-77
2022/12/06 02:35:56;;;;;;;;;;;;;;;20.38;29.51;98603.66;5014301;28;1083;-77
2022/12/06 02:38:31;;;;;;;;;;;;;;;19.98;30.34;98608.16;4998019;28;906;-77
2022/12/06 02:40:57;;;;;;;;;;;;;;;20.12;30.13;98607.19;5014569;28;904;-76
2022/12/06 02:43:34;;;;;;;;;;;;;;;20.57;29.36;98599.41;4998404;28;1910;-76
2022/12/06 02:46:00;;;;;;;;;;;;;;;20.61;29.28;98600.16;5014139;28;1027;-77
2022/12/06 02:48:25;;;;;;;;;;;;;;;20.45;29.56;98600.75;5014236;28;802;-76
2022/12/06 02:50:56;;;;;;;;;;;;;;;20.68;29.34;98593.63;4998079;28;900;-77
2022/12/06 02:53:22;;;;;;;;;;;;;;;20.23;29.86;98600.19;4997852;28;905;-77
2022/12/06 02:55:47;;;;;;;;;;;;;;;20.11;29.89;98600.75;5014616;28;733;-76
2022/12/06 02:58:13;;;;;;;;;;;;;;;20.16;29.96;98597.47;4998283;28;755;-77
2022/12/06 03:00:39;;;;;;;;;;;;;;;20.47;29.65;98603.19;5014431;28;972;-77
2022/12/06 03:03:24;;;;;;;;;;;;;;;20.54;29.61;98589.75;5014200;28;1967;-77
2022/12/06 03:06:01;;;;;;;;;;;;;;;20.55;29.31;98601.88;4994570;28;1219;-77
2022/12/06 03:08:45;;;;;;;;;;;;;;;20.53;29.20;98587.38;4994898;28;952;-77
2022/12/06 03:11:11;;;;;;;;;;;;;;;20.19;29.55;98593.78;4994768;28;1000;-76
2022/12/06 03:13:45;;;;;;;;;;;;;;;20.01;30.37;98596.03;5035261;28;1040;-77
2022/12/06 03:16:25;;;;;;;;;;;;;;;19.80;30.66;98590.56;5076481;28;924;-77
2022/12/06 03:19:20;;;;;;;;;;;;;;;20.28;29.73;98599.75;5092053;28;961;-77
2022/12/06 03:21:47;;;;;;;;;;;;;;;20.47;29.41;98601.16;5037515;28;1902;-76
2022/12/06 03:24:13;;;;;;;;;;;;;;;20.55;29.25;98596.22;5021260;28;1053;-77
2022/12/06 03:26:38;;;;;;;;;;;;;;;20.52;29.20;98597.03;5020903;28;963;-77
2022/12/06 03:29:04;;;;;;;;;;;;;;;20.24;29.73;98604.63;5021389;28;1024;-77
2022/12/06 03:31:30;;;;;;;;;;;;;;;19.88;30.33;98603.41;5004582;28;922;-77
2022/12/06 03:33:57;;;;;;;;;;;;;;;20.38;29.87;98602.88;5021230;28;968;-77
2022/12/06 03:36:22;;;;;;;;;;;;;;;20.34;29.53;98602.91;5021026;28;1069;-77
2022/12/06 03:38:52;;;;;;;;;;;;;;;20.59;28.95;98602.63;5021004;28;922;-78
2022/12/06 03:41:18;;;;;;;;;;;;;;;20.45;29.16;98602.78;5021027;28;1902;-76
2022/12/06 03:43:43;;;;;;;;;;;;;;;20.66;28.90;98596.06;5021083;28;941;-77
2022/12/06 03:46:16;;;;;;;;;;;;;;;20.56;29.24;98597.81;5010085;28;1200;-77
2022/12/06 03:48:55;;;;;;;;;;;;;;;20.07;29.84;98594.34;4989279;28;1283;-78
2022/12/06 03:51:22;;;;;;;;;;;;;;;19.72;30.16;98599.13;4988261;28;1350;-77
2022/12/06 03:53:48;;;;;;;;;;;;;;;20.23;29.64;98594.56;4986770;28;1390;-77
2022/12/06 03:56:13;;;;;;;;;;;;;;;20.26;29.74;98595.72;4967852;28;1272;-77
2022/12/06 03:58:39;;;;;;;;;;;;;;;20.54;28.90;98594.63;4996566;28;1359;-77
2022/12/06 04:01:04;;;;;;;;;;;;;;;20.69;28.99;98590.38;4990997;28;1906;-77
2022/12/06 04:03:30;;;;;;;;;;;;;;;20.79;28.66;98586.59;5005077;28;1314;-77
2022/12/06 04:05:55;;;;;;;;;;;;;;;20.59;28.96;98584.88;5007871;28;1343;-77
2022/12/06 04:08:20;;;;;;;;;;;;;;;20.93;28.25;98582.75;5007762;28;1254;-77
2022/12/06 04:10:46;;;;;;;;;;;;;;;20.27;29.32;98586.03;5006093;28;1318;-76
2022/12/06 04:13:11;;;;;;;;;;;;;;;20.02;29.53;98586.31;5006465;28;1409;-77
2022/12/06 04:15:37;;;;;;;;;;;;;;;20.20;29.80;98583.28;4990922;28;1371;-76
2022/12/06 04:18:09;;;;;;;;;;;;;;;20.51;28.91;98576.47;4982910;28;1294;-77
2022/12/06 04:23:22;;;;;;;;;;;;;;;20.60;28.92;98575.16;5030562;28;1898;-77
2022/12/06 04:25:47;;;;;;;;;;;;;;;20.60;28.74;98587.25;5076002;28;1431;-77
2022/12/06 04:39:08;;;;;;;;;;;;;;;20.54;29.18;98583.31;5089204;28;1286;-77
2022/12/06 04:44:17;;;;;;;;;;;;;;;20.62;28.74;98590.44;5098551;28;899;-75
2022/12/06 04:46:43;;;;;;;;;;;;;;;20.75;28.58;98593.53;5098177;28;876;-76
2022/12/06 04:49:08;;;;;;;;;;;;;;;20.78;28.92;98590.66;5098383;28;959;-77
2022/12/06 04:51:34;;;;;;;;;;;;;;;20.34;29.04;98590.78;5098054;28;893;-77
2022/12/06 04:53:59;;;;;;;;;;;;;;;20.19;29.54;98596.59;5098418;28;876;-76
2022/12/06 04:56:25;;;;;;;;;;;;;;;19.98;29.68;98586.34;5080156;28;924;-76
2022/12/06 04:58:50;;;;;;;;;;;;;;;20.28;29.37;98596.91;5080312;28;869;-76
2022/12/06 05:01:16;;;;;;;;;;;;;;;20.47;29.02;98591.88;5098141;28;1965;-76
2022/12/06 05:03:42;;;;;;;;;;;;;;;20.57;28.99;98590.13;5098267;28;886;-77
2022/12/06 05:06:07;;;;;;;;;;;;;;;20.57;29.09;98582.44;5079869;28;960;-76
2022/12/06 05:08:33;;;;;;;;;;;;;;;20.46;29.24;98591.06;5098223;28;886;-76
2022/12/06 05:10:58;;;;;;;;;;;;;;;20.23;29.42;98585.28;5080184;28;880;-76
2022/12/06 05:13:24;;;;;;;;;;;;;;;20.32;29.50;98587.59;5097583;28;1205;-76
2022/12/06 05:15:53;;;;;;;;;;;;;;;20.44;29.28;98585.00;5097736;28;918;-77
2022/12/06 05:18:19;;;;;;;;;;;;;;;20.53;29.37;98584.53;5097782;28;917;-76
2022/12/06 05:20:44;;;;;;;;;;;;;;;20.55;29.28;98584.91;5079540;28;926;-76
2022/12/06 05:23:09;;;;;;;;;;;;;;;20.64;28.84;98582.38;5098197;28;1963;-76
2022/12/06 05:25:35;;;;;;;;;;;;;;;20.98;28.27;98584.28;5097679;28;832;-76
2022/12/06 05:28:00;;;;;;;;;;;;;;;20.26;29.35;98588.06;5038072;28;912;-76
2022/12/06 05:30:26;;;;;;;;;;;;;;;19.98;29.76;98585.56;5055231;28;1059;-77
2022/12/06 05:32:51;;;;;;;;;;;;;;;20.22;29.68;98578.81;5055222;28;1024;-77
2022/12/06 05:35:17;;;;;;;;;;;;;;;20.34;29.67;98585.16;5021820;28;924;-76
2022/12/06 05:37:42;;;;;;;;;;;;;;;20.54;28.97;98577.66;5055051;28;1034;-76
2022/12/06 05:40:08;;;;;;;;;;;;;;;20.61;28.98;98577.53;5021534;28;1209;-77
2022/12/06 05:42:33;;;;;;;;;;;;;;;20.63;29.08;98580.78;5054119;28;1910;-76
2022/12/06 05:44:59;;;;;;;;;;;;;;;20.21;29.43;98585.72;5054720;28;993;-76
2022/12/06 05:47:24;;;;;;;;;;;;;;;19.87;30.06;98584.88;5054798;28;1010;-76
2022/12/06 05:49:50;;;;;;;;;;;;;;;19.97;30.08;98589.59;5055098;28;939;-76
2022/12/06 05:52:15;;;;;;;;;;;;;;;20.43;29.35;98577.75;5038300;28;1784;-77
2022/12/06 05:54:41;;;;;;;;;;;;;;;20.47;29.23;98583.41;5037946;28;1094;-76
2022/12/06 05:57:06;;;;;;;;;;;;;;;20.58;28.96;98575.59;5054947;28;1122;-76
2022/12/06 05:59:32;;;;;;;;;;;;;;;20.76;28.47;98584.59;5085449;28;998;-77
2022/12/06 06:01:57;;;;;;;;;;;;;;;20.69;28.91;98581.88;5096729;28;1984;-76
2022/12/06 06:04:23;;;;;;;;;;;;;;;20.05;29.67;98591.09;5079123;28;1036;-77
2022/12/06 06:06:48;;;;;;;;;;;;;;;19.91;29.91;98591.28;5097305;28;899;-77
2022/12/06 06:09:14;;;;;;;;;;;;;;;20.16;29.56;98597.47;5097381;28;905;-76
2022/12/06 06:11:39;;;;;;;;;;;;;;;20.33;29.20;98600.50;5097097;28;926;-77
2022/12/06 06:14:04;;;;;;;;;;;;;;;20.65;28.65;98595.28;5097005;28;979;-76
2022/12/06 06:16:31;;;;;;;;;;;;;;;20.67;28.80;98592.00;5096895;28;951;-77
2022/12/06 06:18:57;;;;;;;;;;;;;;;20.60;29.05;98595.75;5062278;28;929;-76
2022/12/06 06:21:22;;;;;;;;;;;;;;;20.54;28.77;98594.63;5079087;28;1996;-76
2022/12/06 06:23:47;;;;;;;;;;;;;;;20.36;29.00;98588.34;5096649;28;870;-76
2022/12/06 06:26:13;;;;;;;;;;;;;;;19.97;29.84;98606.56;5096757;28;862;-76
2022/12/06 06:28:38;;;;;;;;;;;;;;;20.39;29.39;98587.50;5096912;28;922;-76
2022/12/06 06:31:04;;;;;;;;;;;;;;;20.51;28.98;98595.44;5096543;28;939;-76
2022/12/06 06:33:30;;;;;;;;;;;;;;;20.65;28.73;98589.63;5096683;28;892;-76
2022/12/06 06:35:56;;;;;;;;;;;;;;;20.70;28.90;98580.66;5096440;28;847;-76
2022/12/06 06:38:21;;;;;;;;;;;;;;;20.38;29.16;98583.09;5096996;28;1056;-76
2022/12/06 06:40:46;;;;;;;;;;;;;;;19.78;30.11;98588.97;5078777;28;934;-77
2022/12/06 06:43:19;;;;;;;;;;;;;;;19.87;29.82;98584.88;5096632;28;1905;-76
2022/12/06 06:45:44;;;;;;;;;;;;;;;20.37;29.12;98581.47;5096471;28;906;-77
2022/12/06 06:48:10;;;;;;;;;;;;;;;20.63;28.75;98583.59;5096185;28;906;-77
2022/12/06 06:50:35;;;;;;;;;;;;;;;20.49;28.88;98586.59;5096539;28;845;-76
2022/12/06 06:53:01;;;;;;;;;;;;;;;20.51;28.94;98584.94;5097073;28;899;-72
2022/12/06 06:55:29;;;;;;;;;;;;;;;20.69;29.35;98584.72;5100489;28;1023;-75
2022/12/06 06:57:54;;;;;;;;;;;;;;;20.99;28.45;98588.75;5082522;28;1036;-70
2022/12/06 07:00:19;;;;;;;;;;;;;;;20.57;29.23;98571.13;5064090;28;987;-72
2022/12/06 07:02:45;;;;;;;;;;;;;;;20.45;29.85;98585.81;5100268;28;1977;-72
2022/12/06 07:05:10;;;;;;;;;;;;;;;20.37;30.34;98589.97;5100231;28;987;-73
2022/12/06 07:07:36;;;;;;;;;;;;;;;20.70;29.86;98579.84;5084078;28;1743;-72
2022/12/06 07:10:01;;;;;;;;;;;;;;;20.60;30.28;98578.78;5080610;28;1617;-69
2022/12/06 07:12:27;;;;;;;;;;;;;;;20.60;30.61;98580.81;5099730;28;1335;-71
2022/12/06 07:14:52;;;;;;;;;;;;;;;20.77;30.20;98580.53;5048361;28;971;-71
2022/12/06 07:17:18;;;;;;;;;;;;;;;20.98;30.26;98584.28;5037206;28;1492;-75
2022/12/06 07:19:43;;;;;;;;;;;;;;;21.29;29.56;98588.66;5038325;28;1138;-71
2022/12/06 07:22:09;;;;;;;;;;;;;;;20.69;31.06;98583.91;5057063;28;1906;-77
2022/12/06 07:24:34;;;;;;;;;;;;;;;20.68;30.91;98583.13;5057313;28;1010;-74
2022/12/06 07:27:00;;;;;;;;;;;;;;;21.19;29.78;98578.34;5040575;28;996;-74
2022/12/06 07:29:25;;;;;;;;;;;;;;;21.71;28.91;98580.72;5057038;28;1007;-73
2022/12/06 07:31:51;;;;;;;;;;;;;;;21.69;28.98;98574.69;5040194;28;1068;-73
2022/12/06 07:34:16;;;;;;;;;;;;;;;20.90;30.68;98582.81;5057094;28;1061;-75
2022/12/06 07:36:41;;;;;;;;;;;;;;;21.77;28.93;98581.81;5043784;28;1832;-73
2022/12/06 07:39:07;;;;;;;;;;;;;;;21.67;28.91;98579.97;5036833;28;941;-74
2022/12/06 07:47:16;;;;;;;;;;;;;;;21.40;29.60;98582.06;5072882;28;999;-74
2022/12/06 07:49:42;;;;;;;;;;;;;;;21.68;29.16;98580.78;5078302;28;1514;-74
2022/12/06 07:52:07;;;;;;;;;;;;;;;21.73;29.37;98583.13;5074943;28;1873;-74
2022/12/06 07:54:33;;;;;;;;;;;;;;;21.60;29.92;98574.44;5075329;28;1626;-72
2022/12/06 07:56:58;;;;;;;;;;;;;;;21.94;28.96;98576.25;5084051;28;2161;-73
2022/12/06 07:59:24;;;;;;;;;;;;;;;20.89;30.98;98575.56;5076489;28;1626;-72
2022/12/06 08:01:50;;;;;;;;;;;;;;;20.98;30.72;98570.16;5076027;28;1906;-72
2022/12/06 08:04:15;;;;;;;;;;;;;;;21.03;30.46;98564.00;5078415;28;1781;-78
2022/12/06 08:06:41;;;;;;;;;;;;;;;20.25;31.65;98555.34;5077821;28;951;-78
2022/12/06 08:09:06;;;;;;;;;;;;;;;20.21;31.65;98560.28;5072799;28;1895;-78
2022/12/06 08:11:32;;;;;;;;;;;;;;;20.19;31.61;98544.94;5059370;28;1248;-78
2022/12/06 08:13:57;;;;;;;;;;;;;;;20.18;31.49;98549.81;5098255;28;1125;-79
2022/12/06 08:16:23;;;;;;;;;;;;;;;20.19;31.32;98551.41;5098659;28;949;-78
2022/12/06 08:18:48;;;;;;;;;;;;;;;20.18;31.34;98549.00;5099001;28;943;-78
2022/12/06 08:21:15;;;;;;;;;;;;;;;20.08;31.44;98539.44;5098412;28;1977;-79
2022/12/06 08:23:40;;;;;;;;;;;;;;;20.21;31.09;98540.50;5098934;28;843;-78
2022/12/06 08:26:11;;;;;;;;;;;;;;;20.17;31.11;98545.38;5098663;28;928;-78
2022/12/06 08:28:36;;;;;;;;;;;;;;;20.34;30.79;98546.38;5080634;28;1154;-79
2022/12/06 08:31:06;;;;;;;;;;;;;;;20.34;31.01;98545.56;5080565;28;885;-78
2022/12/06 08:33:31;;;;;;;;;;;;;;;20.34;30.73;98545.56;5080413;28;895;-78
2022/12/06 08:35:57;;;;;;;;;;;;;;;20.30;30.65;98546.41;5098143;28;947;-78
2022/12/06 08:38:22;;;;;;;;;;;;;;;20.26;30.84;98545.69;5098295;28;954;-75
2022/12/06 08:41:58;;;;;;;;;;;;;;;20.73;30.35;98531.75;5093468;27;1357;-69
2022/12/06 08:44:25;;;;;;;;;;;;;;;20.73;30.61;98539.44;5086752;28;1803;-67
2022/12/06 08:46:51;;;;;;;;;;;;;;;21.07;29.72;98542.91;5118110;28;1544;-69
2022/12/06 08:49:17;;;;;;;;;;;;;;;20.63;30.72;98535.53;5093137;28;948;-69
2022/12/06 08:51:42;;;;;;;;;;;;;;;20.89;30.24;98530.31;5092953;28;923;-71
2022/12/06 08:54:08;;;;;;;;;;;;;;;20.98;30.29;98527.72;5087143;28;1682;-72
2022/12/06 08:56:34;;;;;;;;;;;;;;;21.10;30.21;98524.31;5081452;28;955;-71
2022/12/06 08:59:00;;;;;;;;;;;;;;;21.05;30.48;98521.97;5093502;28;937;-72
2022/12/06 09:01:26;;;;;;;;;;;;;;;21.24;30.15;98518.41;5083749;28;1905;-68
2022/12/06 09:03:52;;;;;;;;;;;;;;;20.48;31.65;98514.34;5093240;28;1087;-70
2022/12/06 09:06:17;;;;;;;;;;;;;;;20.29;31.89;98510.91;5093257;28;1068;-72
2022/12/06 09:10:10;;;;;;;;;;;;;;;20.97;30.80;98514.81;5155336;27;1338;-71
2022/12/06 09:12:35;;;;;;;;;;;;;;;21.09;30.85;98511.38;5153783;27;879;-74
2022/12/06 09:15:01;;;;;;;;;;;;;;;21.47;29.79;98502.69;5153402;27;1140;-71
2022/12/06 09:17:26;;;;;;;;;;;;;;;21.50;29.83;98501.78;5133465;27;1817;-73
2022/12/06 09:19:52;;;;;;;;;;;;;;;21.59;29.61;98500.00;5130851;27;1646;-73
2022/12/06 09:22:17;;;;;;;;;;;;;;;21.83;29.39;98503.59;5134080;28;1078;-71
2022/12/06 09:24:43;;;;;;;;;;;;;;;21.78;29.31;98489.94;5132294;27;1691;-72
2022/12/06 09:27:08;;;;;;;;;;;;;;;22.00;29.07;98478.97;5129344;28;1383;-70
2022/12/06 09:29:34;;;;;;;;;;;;;;;22.15;28.96;98485.19;5112459;28;1918;-71
2022/12/06 09:32:00;;;;;;;;;;;;;;;21.81;29.03;98482.59;5115223;28;1069;-77
2022/12/06 09:34:25;;;;;;;;;;;;;;;21.50;29.82;98473.47;5131505;27;1697;-76
2022/12/06 09:36:55;;;;;;;;;;;;;;;21.19;30.22;98473.63;5130357;28;1893;-77
2022/12/06 09:39:22;;;;;;;;;;;;;;;21.01;30.44;98475.94;5125348;28;1254;-74
2022/12/06 09:42:07;;;;;;;;;;;;;;;21.90;29.61;98459.34;5103964;28;1525;-74
2022/12/06 09:44:33;;;;;;;;;;;;;;;21.63;29.68;98460.31;5025812;28;1537;-77
2022/12/06 09:47:04;;;;;;;;;;;;;;;21.49;30.10;98464.19;5050989;28;1392;-79
2022/12/06 09:49:31;;;;;;;;;;;;;;;21.12;30.63;98453.13;5051168;28;1973;-74
2022/12/06 09:52:02;;;;;;;;;;;;;;;21.00;30.59;98461.00;5050424;28;1029;-75
2022/12/06 09:54:28;;;;;;;;;;;;;;;20.54;31.47;98459.72;5050718;28;1021;-79
2022/12/06 09:56:54;;;;;;;;;;;;;;;21.19;31.05;98461.47;5033784;28;1283;-79
2022/12/06 09:59:31;;;;;;;;;;;;;;;21.65;30.05;98457.81;4999051;28;1542;-78
2022/12/06 10:02:09;;;;;;;;;;;;;;;22.12;29.21;98452.03;5014312;28;965;-79
2022/12/06 10:04:44;;;;;;;;;;;;;;;21.52;29.83;98448.38;5030702;28;1220;-81
2022/12/06 10:07:15;;;;;;;;;;;;;;;21.25;30.13;98446.41;5014382;28;993;-81
2022/12/06 10:09:41;;;;;;;;;;;;;;;21.21;30.25;98440.03;5014162;28;1910;-77
2022/12/06 10:12:14;;;;;;;;;;;;;;;21.01;30.70;98436.34;5030507;28;896;-79
2022/12/06 10:14:46;;;;;;;;;;;;;;;21.23;30.44;98420.56;5014254;28;1010;-78
2022/12/06 10:17:18;;;;;;;;;;;;;;;21.67;29.80;98421.38;5047875;28;2045;-79
2022/12/06 10:19:49;;;;;;;;;;;;;;;21.11;30.30;98423.25;5046600;28;953;-78
2022/12/06 10:22:24;;;;;;;;;;;;;;;20.62;31.27;98420.81;5098494;28;1175;-79
2022/12/06 10:24:58;;;;;;;;;;;;;;;20.45;31.51;98407.72;5119323;28;945;-79
2022/12/06 10:27:43;;;;;;;;;;;;;;;20.85;30.90;98405.09;5083962;28;1023;-80
2022/12/06 10:30:10;;;;;;;;;;;;;;;21.19;29.97;98402.88;5118140;28;960;-79
2022/12/06 10:32:49;;;;;;;;;;;;;;;21.05;29.82;98408.78;5118370;28;992;-79
2022/12/06 10:35:16;;;;;;;;;;;;;;;20.74;30.34;98406.09;5117770;28;931;-79
2022/12/06 10:37:50;;;;;;;;;;;;;;;20.48;30.71;98398.44;5075818;28;1272;-79
2022/12/06 10:40:23;;;;;;;;;;;;;;;20.60;30.62;98400.66;5076151;28;1005;-79
2022/12/06 10:42:57;;;;;;;;;;;;;;;20.55;30.45;98401.13;5076218;28;991;-79
2022/12/06 10:48:34;;;;;;;;;;;;;;;20.93;29.72;98389.59;5075582;28;1902;-78
2022/12/06 10:51:01;;;;;;;;;;;;;;;21.01;29.42;98394.69;5075910;28;1025;-79
2022/12/06 10:53:27;;;;;;;;;;;;;;;20.93;29.85;98389.59;5058930;28;1019;-79
2022/12/06 10:55:57;;;;;;;;;;;;;;;20.63;30.06;98399.81;5075836;28;958;-76
2022/12/06 10:58:34;;;;;;;;;;;;;;;20.59;29.93;98387.75;5075630;28;925;-76
2022/12/06 11:01:04;;;;;;;;;;;;;;;20.54;30.02;98385.41;5076135;28;976;-76
2022/12/06 11:03:49;;;;;;;;;;;;;;;20.33;30.39;98382.91;5075533;28;971;-76
2022/12/06 11:06:33;;;;;;;;;;;;;;;21.03;29.23;98385.78;5075506;28;1067;-76
2022/12/06 11:09:38;;;;;;;;;;;;;;;21.07;29.24;98378.81;5087949;28;1910;-77
2022/12/06 11:12:11;;;;;;;;;;;;;;;20.91;29.78;98375.09;5016127;28;1017;-75
2022/12/06 11:14:39;;;;;;;;;;;;;;;20.47;30.38;98368.59;4999497;28;969;-74
2022/12/06 11:17:15;;;;;;;;;;;;;;;20.70;29.80;98364.94;5016135;28;1050;-78
2022/12/06 11:19:43;;;;;;;;;;;;;;;20.94;30.08;98368.59;5015047;28;994;-76
2022/12/06 11:22:09;;;;;;;;;;;;;;;21.15;29.65;98356.88;5002641;28;1103;-75
2022/12/06 11:24:35;;;;;;;;;;;;;;;21.79;28.32;98360.44;5035095;28;967;-77
2022/12/06 11:27:03;;;;;;;;;;;;;;;20.97;29.49;98357.19;4976218;28;1014;-77
2022/12/06 11:29:29;;;;;;;;;;;;;;;20.73;29.91;98359.25;4959743;28;1993;-77
2022/12/06 11:31:56;;;;;;;;;;;;;;;20.59;30.25;98362.31;4959571;28;983;-77
2022/12/06 11:34:21;;;;;;;;;;;;;;;20.49;30.40;98355.59;4959941;28;973;-77
2022/12/06 11:36:50;;;;;;;;;;;;;;;20.41;30.36;98353.28;4976647;28;1042;-77
2022/12/06 11:39:15;;;;;;;;;;;;;;;20.39;30.47;98352.91;4975868;28;1002;-76
2022/12/06 11:41:41;;;;;;;;;;;;;;;20.52;30.24;98342.63;4964543;28;992;-77
2022/12/06 11:44:07;;;;;;;;;;;;;;;20.98;29.56;98349.50;5074849;28;983;-76
2022/12/06 11:46:33;;;;;;;;;;;;;;;20.96;29.49;98347.09;5058083;28;1082;-77
2022/12/06 11:49:02;;;;;;;;;;;;;;;20.69;29.81;98335.88;5074475;28;1906;-77
2022/12/06 11:51:28;;;;;;;;;;;;;;;20.58;29.82;98335.28;5058023;28;996;-78
2022/12/06 11:54:01;;;;;;;;;;;;;;;20.39;29.99;98338.78;5074344;28;977;-78
2022/12/06 11:56:26;;;;;;;;;;;;;;;20.45;30.14;98337.06;5057829;28;1201;-78
2022/12/06 11:58:55;;;;;;;;;;;;;;;20.52;29.75;98326.50;5107094;28;1440;-77
2022/12/06 12:01:20;;;;;;;;;;;;;;;20.41;30.14;98330.66;5097415;28;1005;-80
2022/12/06 12:03:47;;;;;;;;;;;;;;;20.57;29.78;98336.47;5096414;28;957;-79
2022/12/06 12:06:17;;;;;;;;;;;;;;;20.85;29.29;98335.19;5079725;28;1005;-79
2022/12/06 12:08:51;;;;;;;;;;;;;;;20.80;29.27;98328.00;5096903;28;1902;-79
2022/12/06 12:11:20;;;;;;;;;;;;;;;20.75;29.15;98328.50;5096891;28;1013;-79
2022/12/06 12:13:53;;;;;;;;;;;;;;;20.50;29.47;98333.78;5095470;28;1023;-80
2022/12/06 12:16:23;;;;;;;;;;;;;;;20.43;29.71;98333.88;5096154;28;894;-80
2022/12/06 12:18:53;;;;;;;;;;;;;;;20.76;29.65;98330.09;5096021;28;1276;-79
2022/12/06 12:21:27;;;;;;;;;;;;;;;20.89;29.11;98332.31;5096230;28;1130;-80
2022/12/06 12:23:53;;;;;;;;;;;;;;;20.91;28.81;98324.19;5095444;28;973;-79
2022/12/06 12:26:19;;;;;;;;;;;;;;;20.71;29.12;98316.44;5074303;28;1145;-79
2022/12/06 12:28:45;;;;;;;;;;;;;;;20.34;29.97;98330.78;5033799;28;1981;-79
2022/12/06 12:31:18;;;;;;;;;;;;;;;20.41;29.84;98337.13;5018267;28;946;-79
2022/12/06 12:33:43;;;;;;;;;;;;;;;20.43;29.60;98331.84;5017610;28;1079;-79
2022/12/06 12:36:13;;;;;;;;;;;;;;;20.79;29.19;98329.22;5034399;28;965;-80
2022/12/06 12:38:59;;;;;;;;;;;;;;;20.92;28.97;98331.44;5017515;28;1008;-79
2022/12/06 12:41:27;;;;;;;;;;;;;;;20.93;28.80;98322.50;5017754;28;983;-79
2022/12/06 12:44:00;;;;;;;;;;;;;;;20.87;29.00;98317.78;5050856;28;1791;-79
2022/12/06 12:46:27;;;;;;;;;;;;;;;20.55;29.53;98313.50;5037364;28;1069;-79
2022/12/06 12:48:53;;;;;;;;;;;;;;;20.48;29.79;98320.09;5037475;28;1997;-79
2022/12/06 12:51:18;;;;;;;;;;;;;;;20.61;29.40;98310.97;5054604;28;1028;-80
2022/12/06 12:53:44;;;;;;;;;;;;;;;20.73;29.19;98307.56;5053762;28;992;-79
2022/12/06 12:56:10;;;;;;;;;;;;;;;20.95;28.97;98302.28;5056103;28;970;-80
2022/12/06 12:58:35;;;;;;;;;;;;;;;21.12;28.58;98301.13;5094668;28;980;-79
2022/12/06 13:01:03;;;;;;;;;;;;;;;20.89;29.07;98315.34;5117806;28;961;-79
2022/12/06 13:03:28;;;;;;;;;;;;;;;20.60;29.35;98307.34;5115516;28;1008;-79
2022/12/06 13:05:54;;;;;;;;;;;;;;;20.39;29.64;98310.53;5115956;28;941;-79
2022/12/06 13:08:19;;;;;;;;;;;;;;;20.41;29.63;98303.19;5115318;28;1972;-79
2022/12/06 13:10:46;;;;;;;;;;;;;;;20.51;29.47;98298.63;5116569;28;911;-79
2022/12/06 13:13:12;;;;;;;;;;;;;;;20.34;29.87;98296.88;5116553;28;919;-79
2022/12/06 13:15:50;;;;;;;;;;;;;;;20.41;29.74;98296.75;5115610;28;1074;-79
2022/12/06 13:18:19;;;;;;;;;;;;;;;20.85;28.92;98291.97;5115663;28;780;-79
2022/12/06 13:20:44;;;;;;;;;;;;;;;20.81;28.98;98292.03;5116844;28;948;-79
2022/12/06 13:23:14;;;;;;;;;;;;;;;20.65;29.17;98287.06;5115350;28;904;-79
2022/12/06 13:25:41;;;;;;;;;;;;;;;20.62;29.18;98285.09;5115513;28;1109;-81
2022/12/06 13:28:10;;;;;;;;;;;;;;;20.58;29.38;98284.38;5115972;28;1906;-81
2022/12/06 13:30:36;;;;;;;;;;;;;;;20.97;28.84;98282.84;5115579;28;1033;-78
2022/12/06 13:33:17;;;;;;;;;;;;;;;21.02;28.95;98285.16;5115157;28;1325;-81